createdAt,value
2018-05-31T00:00:11.417Z,21.20
2018-05-31T00:02:40.277Z,21.13
2018-05-31T00:05:09.115Z,21.08
2018-05-31T00:07:38.000Z,21.03
2018-05-31T00:10:06.849Z,21.09
2018-05-31T00:12:35.738Z,21.12
2018-05-31T00:15:04.726Z,21.11
2018-05-31T00:17:33.564Z,21.07
2018-05-31T00:20:02.417Z,21.02
2018-05-31T00:22:31.276Z,21.01
2018-05-31T00:25:00.103Z,21.00
2018-05-31T00:27:28.973Z,20.94
2018-05-31T00:29:59.043Z,20.97
2018-05-31T00:32:27.886Z,20.92
2018-05-31T00:34:56.717Z,20.87
2018-05-31T00:37:26.945Z,20.86
2018-05-31T00:39:55.835Z,20.83
2018-05-31T00:42:24.670Z,20.80
2018-05-31T00:44:53.517Z,20.78
2018-05-31T00:47:23.638Z,20.76
2018-05-31T00:49:52.465Z,20.73
2018-05-31T00:52:21.292Z,20.75
2018-05-31T00:54:52.045Z,20.79
2018-05-31T00:57:20.878Z,20.78
2018-05-31T00:59:49.813Z,20.73
2018-05-31T01:02:18.690Z,20.74
2018-05-31T01:04:47.557Z,20.73
2018-05-31T01:07:16.392Z,20.73
2018-05-31T01:09:45.273Z,20.96
2018-05-31T01:12:14.126Z,20.78
2018-05-31T01:14:44.607Z,20.77
2018-05-31T01:17:13.447Z,20.76
2018-05-31T01:19:42.338Z,20.72
2018-05-31T01:22:12.606Z,21.02
2018-05-31T01:24:41.465Z,21.11
2018-05-31T01:27:10.380Z,20.83
2018-05-31T01:29:39.172Z,20.78
2018-05-31T01:32:09.699Z,20.78
2018-05-31T01:34:38.478Z,20.83
2018-05-31T01:37:07.331Z,20.83
2018-05-31T01:39:37.821Z,20.87
2018-05-31T01:42:06.681Z,20.84
2018-05-31T01:44:35.564Z,20.70
2018-05-31T01:47:04.461Z,20.70
2018-05-31T01:49:33.313Z,20.97
2018-05-31T01:52:02.142Z,21.08
2018-05-31T01:54:31.000Z,20.84
2018-05-31T01:56:59.821Z,21.13
2018-05-31T01:59:29.872Z,20.85
2018-05-31T02:01:58.728Z,21.13
2018-05-31T02:04:27.646Z,20.91
2018-05-31T02:06:56.520Z,20.83
2018-05-31T02:09:25.384Z,20.81
2018-05-31T02:11:54.276Z,20.73
2018-05-31T02:14:23.093Z,20.72
2018-05-31T02:16:52.035Z,20.71
2018-05-31T02:19:20.873Z,20.68
2018-05-31T02:21:49.745Z,20.62
2018-05-31T02:24:18.609Z,20.63
2018-05-31T02:26:47.508Z,20.82
2018-05-31T02:29:16.422Z,20.66
2018-05-31T02:31:45.313Z,20.62
2018-05-31T02:34:14.181Z,20.62
2018-05-31T02:36:43.049Z,20.58
2018-05-31T02:39:12.065Z,20.62
2018-05-31T02:41:40.899Z,20.60
2018-05-31T02:44:09.767Z,20.53
2018-05-31T02:46:38.600Z,20.57
2018-05-31T02:49:07.457Z,20.52
2018-05-31T02:51:36.342Z,20.45
2018-05-31T02:54:05.223Z,20.44
2018-05-31T02:56:34.151Z,20.43
2018-05-31T02:59:03.013Z,20.72
2018-05-31T03:01:31.868Z,20.47
2018-05-31T03:04:00.741Z,20.44
2018-05-31T03:06:29.592Z,20.39
2018-05-31T03:08:58.460Z,20.35
2018-05-31T03:11:27.326Z,20.35
2018-05-31T03:13:56.203Z,20.66
2018-05-31T03:16:25.041Z,20.44
2018-05-31T03:18:53.929Z,20.39
2018-05-31T03:21:22.793Z,20.33
2018-05-31T03:23:51.649Z,20.32
2018-05-31T03:26:20.513Z,20.36
2018-05-31T03:28:49.476Z,20.35
2018-05-31T03:31:18.370Z,20.32
2018-05-31T03:33:47.238Z,20.28
2018-05-31T03:36:16.101Z,20.55
2018-05-31T03:38:44.944Z,20.34
2018-05-31T03:41:13.807Z,20.36
2018-05-31T03:43:42.667Z,20.41
2018-05-31T03:46:11.540Z,20.47
2018-05-31T03:48:40.394Z,20.46
2018-05-31T03:51:09.218Z,20.44
2018-05-31T03:53:38.079Z,20.43
2018-05-31T03:56:06.888Z,20.36
2018-05-31T03:58:35.756Z,20.32
2018-05-31T04:01:04.633Z,20.56
2018-05-31T04:03:33.453Z,20.38
2018-05-31T04:06:02.304Z,20.39
2018-05-31T04:08:31.148Z,20.41
2018-05-31T04:11:00.013Z,20.46
2018-05-31T04:13:28.898Z,20.45
2018-05-31T04:15:57.737Z,20.76
2018-05-31T04:18:26.559Z,20.65
2018-05-31T04:20:55.404Z,20.66
2018-05-31T04:23:24.249Z,20.63
2018-05-31T04:25:53.091Z,20.68
2018-05-31T04:28:21.930Z,20.72
2018-05-31T04:30:50.758Z,20.75
2018-05-31T04:33:19.628Z,20.80
2018-05-31T04:35:48.469Z,20.90
2018-05-31T04:38:20.535Z,21.04
2018-05-31T04:40:49.369Z,21.40
2018-05-31T04:43:18.205Z,21.27
2018-05-31T04:45:47.069Z,21.55
2018-05-31T04:48:15.936Z,21.37
2018-05-31T04:50:44.784Z,21.39
2018-05-31T04:53:13.660Z,21.45
2018-05-31T04:55:42.461Z,21.44
2018-05-31T04:58:11.318Z,21.48
2018-05-31T05:00:40.166Z,21.58
2018-05-31T05:03:08.996Z,21.71
2018-05-31T05:05:37.845Z,21.88
2018-05-31T05:08:06.678Z,22.01
2018-05-31T05:10:35.539Z,22.09
2018-05-31T05:13:04.538Z,22.19
2018-05-31T05:15:33.373Z,22.17
2018-05-31T05:18:02.249Z,22.18
2018-05-31T05:20:31.085Z,22.26
2018-05-31T05:22:59.967Z,22.30
2018-05-31T05:25:28.799Z,22.42
2018-05-31T05:27:57.632Z,22.48
2018-05-31T05:30:26.483Z,22.55
2018-05-31T05:32:55.371Z,22.75
2018-05-31T05:35:24.268Z,22.96
2018-05-31T05:37:53.147Z,23.09
2018-05-31T05:40:22.015Z,23.09
2018-05-31T05:42:50.854Z,23.10
2018-05-31T05:45:19.721Z,23.14
2018-05-31T05:47:48.574Z,23.22
2018-05-31T05:50:17.447Z,23.25
2018-05-31T05:52:46.359Z,23.36
2018-05-31T05:55:15.211Z,23.47
2018-05-31T05:57:44.066Z,23.56
2018-05-31T06:00:12.907Z,23.71
2018-05-31T06:02:41.779Z,23.85
2018-05-31T06:05:10.616Z,24.08
2018-05-31T06:07:39.482Z,24.16
2018-05-31T06:10:08.361Z,24.17
2018-05-31T06:12:37.200Z,24.17
2018-05-31T06:15:06.095Z,24.21
2018-05-31T06:17:34.928Z,24.33
2018-05-31T06:20:03.808Z,24.49
2018-05-31T06:22:32.643Z,24.88
2018-05-31T06:25:01.499Z,25.67
2018-05-31T06:27:30.341Z,26.57
2018-05-31T06:29:59.214Z,27.54
2018-05-31T06:32:28.073Z,28.53
2018-05-31T06:34:56.960Z,29.30
2018-05-31T06:37:25.894Z,30.35
2018-05-31T06:39:54.746Z,31.12
2018-05-31T06:42:23.647Z,31.92
2018-05-31T06:44:52.502Z,32.32
2018-05-31T06:47:21.316Z,32.69
2018-05-31T06:49:50.260Z,33.45
2018-05-31T06:52:19.171Z,33.38
2018-05-31T06:54:48.160Z,33.40
2018-05-31T06:57:17.722Z,33.82
2018-05-31T06:59:46.614Z,34.00
2018-05-31T07:02:15.471Z,34.50
2018-05-31T07:04:44.357Z,35.15
2018-05-31T07:07:13.373Z,35.47
2018-05-31T07:09:45.279Z,35.71
2018-05-31T07:12:17.107Z,36.39
2018-05-31T07:14:43.948Z,36.76
2018-05-31T07:17:17.792Z,36.91
2018-05-31T07:19:45.618Z,36.79
2018-05-31T07:22:15.123Z,37.25
2018-05-31T07:24:46.241Z,37.42
2018-05-31T07:27:18.034Z,37.49
2018-05-31T07:29:47.199Z,37.87
2018-05-31T07:32:19.276Z,37.96
2018-05-31T07:34:48.979Z,38.22
2018-05-31T07:37:18.086Z,38.44
2018-05-31T07:39:47.290Z,38.83
2018-05-31T07:42:16.556Z,38.30
2018-05-31T07:44:45.422Z,38.62
2018-05-31T07:47:16.496Z,38.65
2018-05-31T07:49:45.924Z,38.72
2018-05-31T07:52:15.220Z,38.66
2018-05-31T07:54:47.428Z,39.19
2018-05-31T07:57:19.348Z,39.24
2018-05-31T07:59:48.469Z,39.52
2018-05-31T08:02:20.399Z,39.33
2018-05-31T08:04:49.442Z,39.48
2018-05-31T08:07:19.852Z,39.54
2018-05-31T08:09:50.530Z,38.98
2018-05-31T08:12:20.878Z,39.52
2018-05-31T08:14:53.739Z,39.22
2018-05-31T08:17:28.318Z,39.51
2018-05-31T08:20:02.669Z,39.84
2018-05-31T08:22:33.377Z,40.01
2018-05-31T08:25:02.826Z,40.21
2018-05-31T08:27:34.464Z,40.37
2018-05-31T08:30:03.900Z,40.63
2018-05-31T08:32:34.139Z,40.79
2018-05-31T08:35:03.303Z,41.29
2018-05-31T08:37:32.399Z,40.85
2018-05-31T08:40:01.595Z,39.46
2018-05-31T08:42:30.979Z,37.33
2018-05-31T08:45:00.386Z,35.17
2018-05-31T08:47:29.691Z,33.98
2018-05-31T08:49:58.743Z,32.38
2018-05-31T08:52:27.949Z,32.24
2018-05-31T08:55:00.171Z,31.55
2018-05-31T08:57:29.303Z,30.68
2018-05-31T08:59:58.690Z,30.57
2018-05-31T09:02:27.789Z,29.81
2018-05-31T09:04:56.962Z,29.60
2018-05-31T09:07:26.439Z,29.28
2018-05-31T09:09:55.813Z,29.17
2018-05-31T09:12:27.847Z,28.67
2018-05-31T09:15:00.407Z,28.21
2018-05-31T09:17:29.544Z,27.83
2018-05-31T09:19:58.583Z,28.46
2018-05-31T09:22:27.925Z,27.94
2018-05-31T09:24:57.180Z,27.87
2018-05-31T09:27:26.721Z,27.74
2018-05-31T09:29:59.465Z,27.91
2018-05-31T09:32:30.342Z,27.53
2018-05-31T09:34:59.412Z,27.54
2018-05-31T09:37:28.443Z,27.52
2018-05-31T09:40:02.059Z,27.50
2018-05-31T09:42:31.590Z,27.50
2018-05-31T09:45:01.409Z,27.89
2018-05-31T09:47:33.532Z,27.39
2018-05-31T09:50:02.997Z,27.87
2018-05-31T09:52:33.667Z,27.42
2018-05-31T09:55:03.091Z,27.46
2018-05-31T09:57:32.311Z,27.39
2018-05-31T10:00:01.760Z,27.24
2018-05-31T10:02:34.902Z,27.32
2018-05-31T10:05:04.485Z,27.30
2018-05-31T10:07:34.398Z,27.31
2018-05-31T10:10:03.614Z,27.34
2018-05-31T10:12:33.335Z,27.38
2018-05-31T10:15:02.574Z,27.50
2018-05-31T10:17:34.908Z,27.71
2018-05-31T10:20:04.038Z,27.68
2018-05-31T10:22:33.237Z,27.76
2018-05-31T10:25:02.197Z,27.77
2018-05-31T10:27:31.481Z,27.89
2018-05-31T10:30:02.759Z,28.02
2018-05-31T10:32:31.861Z,28.11
2018-05-31T10:35:01.405Z,27.99
2018-05-31T10:37:33.096Z,27.86
2018-05-31T10:40:02.239Z,27.85
2018-05-31T10:42:31.242Z,27.73
2018-05-31T10:45:00.682Z,27.52
2018-05-31T10:47:30.135Z,27.39
2018-05-31T10:49:59.436Z,27.43
2018-05-31T10:52:31.463Z,27.30
2018-05-31T10:55:00.955Z,27.31
2018-05-31T10:57:35.211Z,27.26
2018-05-31T11:00:04.718Z,27.26
2018-05-31T11:02:35.525Z,27.24
2018-05-31T11:05:04.890Z,27.28
2018-05-31T11:07:35.051Z,27.37
2018-05-31T11:10:04.793Z,27.39
2018-05-31T11:12:36.459Z,27.50
2018-05-31T11:15:05.628Z,27.51
2018-05-31T11:17:34.951Z,27.35
2018-05-31T11:20:04.374Z,27.34
2018-05-31T11:22:33.644Z,27.50
2018-05-31T11:25:03.104Z,27.46
2018-05-31T11:27:32.907Z,27.64
2018-05-31T11:30:05.007Z,27.69
2018-05-31T11:32:37.864Z,28.01
2018-05-31T11:35:07.213Z,28.21
2018-05-31T11:37:36.791Z,28.31
2018-05-31T11:40:05.990Z,28.45
2018-05-31T11:42:35.949Z,28.58
2018-05-31T11:45:05.554Z,28.77
2018-05-31T11:47:34.509Z,28.84
2018-05-31T11:50:04.064Z,29.05
2018-05-31T11:52:33.873Z,29.01
2018-05-31T11:55:03.399Z,29.16
2018-05-31T11:57:36.242Z,29.33
2018-05-31T12:00:10.180Z,29.66
2018-05-31T12:02:39.284Z,29.77
2018-05-31T12:05:10.427Z,29.67
2018-05-31T12:07:39.597Z,29.58
2018-05-31T12:10:08.735Z,29.74
2018-05-31T12:12:40.431Z,29.67
2018-05-31T12:15:07.266Z,29.54
2018-05-31T12:17:39.300Z,29.51
2018-05-31T12:20:08.267Z,29.28
2018-05-31T12:22:37.447Z,29.35
2018-05-31T12:25:06.481Z,29.31
2018-05-31T12:27:35.593Z,29.58
2018-05-31T12:30:06.724Z,29.68
2018-05-31T12:32:37.573Z,30.40
2018-05-31T12:35:09.946Z,30.41
2018-05-31T12:37:39.046Z,30.13
2018-05-31T12:40:11.777Z,30.41
2018-05-31T12:42:41.197Z,29.99
2018-05-31T12:45:14.818Z,29.95
2018-05-31T12:47:43.986Z,29.83
2018-05-31T12:50:13.211Z,29.60
2018-05-31T12:52:42.361Z,29.75
2018-05-31T12:55:14.740Z,29.79
2018-05-31T12:57:43.681Z,29.99
2018-05-31T13:00:13.066Z,30.01
2018-05-31T13:02:41.991Z,30.18
2018-05-31T13:05:11.359Z,30.32
2018-05-31T13:07:40.490Z,30.52
2018-05-31T13:10:09.867Z,30.58
2018-05-31T13:12:39.061Z,30.53
2018-05-31T13:15:11.326Z,30.25
2018-05-31T13:17:40.671Z,30.15
2018-05-31T13:20:09.973Z,30.02
2018-05-31T13:22:41.658Z,30.03
2018-05-31T13:25:11.065Z,30.15
2018-05-31T13:27:40.189Z,30.15
2018-05-31T13:30:11.652Z,30.27
2018-05-31T13:32:40.761Z,30.07
2018-05-31T13:35:09.964Z,30.02
2018-05-31T13:37:41.759Z,30.11
2018-05-31T13:40:10.653Z,30.10
2018-05-31T13:42:40.153Z,29.96
2018-05-31T13:45:08.929Z,29.81
2018-05-31T13:47:38.106Z,29.85
2018-05-31T13:50:07.118Z,29.71
2018-05-31T13:52:36.322Z,29.43
2018-05-31T13:55:05.593Z,29.30
2018-05-31T13:57:35.201Z,29.03
2018-05-31T14:00:04.377Z,28.89
2018-05-31T14:02:33.445Z,28.82
2018-05-31T14:05:05.019Z,28.88
2018-05-31T14:07:34.631Z,28.82
2018-05-31T14:10:03.870Z,28.62
2018-05-31T14:12:35.602Z,28.95
2018-05-31T14:15:04.723Z,28.85
2018-05-31T14:17:34.156Z,28.89
2018-05-31T14:20:03.763Z,28.88
2018-05-31T14:22:33.035Z,28.92
2018-05-31T14:25:02.223Z,28.81
2018-05-31T14:27:31.373Z,28.92
2018-05-31T14:30:00.786Z,28.74
2018-05-31T14:32:32.425Z,28.81
2018-05-31T14:35:01.478Z,28.68
2018-05-31T14:37:30.634Z,28.56
2018-05-31T14:40:02.279Z,28.44
2018-05-31T14:42:31.466Z,28.38
2018-05-31T14:45:01.069Z,28.51
2018-05-31T14:47:30.404Z,28.50
2018-05-31T14:50:00.076Z,28.32
2018-05-31T14:52:29.218Z,28.33
2018-05-31T14:55:14.591Z,28.27
2018-05-31T14:57:43.451Z,28.27
2018-05-31T15:00:12.361Z,28.00
2018-05-31T15:02:41.171Z,28.05
2018-05-31T15:05:10.020Z,28.06
2018-05-31T15:07:38.910Z,28.14
2018-05-31T15:10:07.786Z,28.16
2018-05-31T15:12:36.655Z,28.04
2018-05-31T15:15:05.519Z,27.94
2018-05-31T15:17:34.373Z,27.84
2018-05-31T15:20:03.256Z,27.81
2018-05-31T15:22:32.118Z,27.79
2018-05-31T15:25:00.974Z,27.76
2018-05-31T15:27:29.812Z,27.63
2018-05-31T15:29:58.685Z,27.67
2018-05-31T15:32:27.518Z,27.72
2018-05-31T15:34:56.451Z,27.71
2018-05-31T15:37:25.294Z,27.68
2018-05-31T15:39:54.161Z,27.62
2018-05-31T15:42:23.068Z,27.56
2018-05-31T15:44:51.908Z,27.54
2018-05-31T15:47:20.787Z,27.45
2018-05-31T15:49:49.630Z,27.29
2018-05-31T15:52:18.538Z,27.30
2018-05-31T15:54:47.410Z,27.29
2018-05-31T15:57:16.290Z,27.23
2018-05-31T15:59:45.161Z,27.13
2018-05-31T16:02:13.993Z,27.04
2018-05-31T16:04:42.857Z,26.94
2018-05-31T16:07:11.667Z,26.83
2018-05-31T16:09:40.524Z,26.75
2018-05-31T16:12:09.333Z,26.68
2018-05-31T16:14:38.171Z,26.65
2018-05-31T16:17:07.020Z,26.65
2018-05-31T16:19:35.890Z,26.65
2018-05-31T16:22:04.753Z,26.58
2018-05-31T16:24:33.595Z,26.52
2018-05-31T16:27:02.428Z,26.63
2018-05-31T16:29:31.286Z,26.71
2018-05-31T16:32:00.149Z,26.81
2018-05-31T16:34:28.995Z,26.80
2018-05-31T16:36:57.861Z,26.88
2018-05-31T16:39:26.734Z,27.00
2018-05-31T16:41:55.624Z,27.06
2018-05-31T16:44:24.502Z,27.08
2018-05-31T16:46:53.380Z,27.16
2018-05-31T16:49:22.210Z,27.12
2018-05-31T16:51:51.068Z,27.17
2018-05-31T16:54:19.910Z,27.26
2018-05-31T16:56:48.772Z,27.30
2018-05-31T16:59:17.649Z,27.32
2018-05-31T17:01:46.451Z,27.32
2018-05-31T17:04:15.311Z,27.35
2018-05-31T17:06:44.159Z,27.27
2018-05-31T17:09:13.039Z,27.24
2018-05-31T17:11:41.858Z,27.32
2018-05-31T17:14:10.770Z,27.27
2018-05-31T17:16:39.622Z,27.38
2018-05-31T17:19:08.477Z,27.23
2018-05-31T17:21:37.329Z,27.22
2018-05-31T17:24:06.160Z,27.34
2018-05-31T17:26:35.023Z,27.25
2018-05-31T17:29:03.945Z,27.41
2018-05-31T17:31:32.811Z,27.24
2018-05-31T17:34:01.668Z,27.19
2018-05-31T17:36:30.531Z,27.36
2018-05-31T17:38:59.419Z,27.24
2018-05-31T17:41:28.277Z,27.16
2018-05-31T17:43:57.113Z,27.17
2018-05-31T17:46:25.952Z,27.04
2018-05-31T17:48:54.780Z,27.02
2018-05-31T17:51:23.619Z,26.97
2018-05-31T17:53:52.458Z,26.91
2018-05-31T17:56:21.311Z,26.87
2018-05-31T17:58:50.121Z,26.73
2018-05-31T18:01:18.965Z,26.59
2018-05-31T18:03:47.786Z,26.63
2018-05-31T18:06:16.644Z,26.60
2018-05-31T18:08:45.487Z,26.57
2018-05-31T18:11:14.336Z,26.57
2018-05-31T18:13:43.178Z,26.51
2018-05-31T18:16:12.044Z,26.48
2018-05-31T18:18:40.880Z,26.46
2018-05-31T18:21:09.712Z,26.42
2018-05-31T18:23:38.533Z,26.42
2018-05-31T18:26:07.401Z,26.35
2018-05-31T18:28:36.228Z,26.28
2018-05-31T18:31:05.461Z,26.36
2018-05-31T18:33:37.480Z,26.13
2018-05-31T18:36:06.361Z,26.11
2018-05-31T18:38:35.203Z,25.97
2018-05-31T18:41:04.075Z,25.93
2018-05-31T18:43:32.947Z,25.84
2018-05-31T18:46:01.814Z,25.79
2018-05-31T18:48:30.615Z,25.67
2018-05-31T18:50:59.463Z,25.59
2018-05-31T18:53:28.307Z,25.48
2018-05-31T18:55:57.147Z,25.43
2018-05-31T18:58:26.007Z,25.33
2018-05-31T19:00:54.858Z,25.21
2018-05-31T19:03:23.738Z,25.08
2018-05-31T19:05:52.606Z,25.30
2018-05-31T19:08:21.597Z,25.05
2018-05-31T19:10:50.826Z,24.99
2018-05-31T19:13:38.807Z,24.96
2018-05-31T19:16:07.685Z,25.12
2018-05-31T19:18:55.680Z,25.14
2018-05-31T19:21:24.560Z,24.83
2018-05-31T19:23:53.389Z,24.72
2018-05-31T19:26:22.233Z,24.57
2018-05-31T19:28:51.047Z,24.47
2018-05-31T19:31:19.879Z,24.40
2018-05-31T19:33:48.716Z,24.33
2018-05-31T19:36:51.777Z,24.26
2018-05-31T19:39:20.714Z,24.39
2018-05-31T19:41:49.616Z,24.12
2018-05-31T19:44:37.584Z,24.29
2018-05-31T19:47:06.457Z,23.92
2018-05-31T19:49:35.290Z,23.88
2018-05-31T19:52:23.277Z,23.80
2018-05-31T19:54:52.133Z,23.67
2018-05-31T19:57:20.966Z,23.51
2018-05-31T20:00:07.773Z,23.42
2018-05-31T20:02:54.659Z,23.36
2018-05-31T20:05:23.497Z,23.25
2018-05-31T20:07:52.338Z,23.14
2018-05-31T20:10:21.263Z,23.07
2018-05-31T20:12:50.029Z,23.30
2018-05-31T20:15:18.890Z,22.98
2018-05-31T20:17:47.753Z,23.27
2018-05-31T20:20:16.593Z,23.01
2018-05-31T20:22:45.458Z,22.99
2018-05-31T20:25:14.304Z,22.91
2018-05-31T20:27:43.168Z,22.80
2018-05-31T20:30:12.055Z,22.68
2018-05-31T20:32:40.945Z,22.65
2018-05-31T20:35:09.812Z,22.60
2018-05-31T20:37:38.650Z,22.86
2018-05-31T20:40:07.546Z,22.63
2018-05-31T20:42:36.405Z,22.50
2018-05-31T20:45:05.301Z,22.39
2018-05-31T20:47:34.165Z,22.35
2018-05-31T20:50:03.019Z,22.30
2018-05-31T20:52:31.886Z,22.25
2018-05-31T20:55:00.741Z,22.18
2018-05-31T20:57:29.581Z,22.16
2018-05-31T20:59:58.456Z,22.14
2018-05-31T21:02:27.272Z,22.07
2018-05-31T21:04:56.137Z,21.97
2018-05-31T21:07:25.013Z,21.88
2018-05-31T21:09:53.871Z,21.89
2018-05-31T21:12:22.711Z,21.90
2018-05-31T21:14:51.583Z,21.95
2018-05-31T21:17:20.433Z,21.92
2018-05-31T21:19:49.262Z,21.94
2018-05-31T21:22:18.106Z,21.90
2018-05-31T21:24:46.972Z,21.87
2018-05-31T21:27:15.842Z,21.74
2018-05-31T21:29:44.669Z,21.68
2018-05-31T21:32:13.509Z,21.58
2018-05-31T21:34:42.379Z,21.45
2018-05-31T21:37:11.298Z,21.38
2018-05-31T21:39:40.088Z,21.24
2018-05-31T21:42:08.950Z,21.17
2018-05-31T21:44:37.841Z,21.18
2018-05-31T21:47:06.679Z,21.19
2018-05-31T21:49:35.541Z,21.08
2018-05-31T21:52:04.412Z,21.05
2018-05-31T21:54:33.234Z,20.99
2018-05-31T21:57:02.106Z,20.96
2018-05-31T21:59:30.947Z,20.92
2018-05-31T22:01:59.791Z,20.91
2018-05-31T22:04:28.638Z,20.91
2018-05-31T22:06:57.473Z,20.91
2018-05-31T22:09:26.362Z,20.96
2018-05-31T22:11:55.200Z,21.09
2018-05-31T22:14:24.065Z,21.05
2018-05-31T22:16:52.917Z,20.95
2018-05-31T22:19:21.748Z,20.83
2018-05-31T22:21:50.549Z,20.79
2018-05-31T22:24:19.376Z,20.85
2018-05-31T22:26:48.223Z,20.88
2018-05-31T22:29:17.062Z,20.88
2018-05-31T22:31:45.948Z,20.80
2018-05-31T22:34:14.779Z,20.69
2018-05-31T22:36:43.640Z,20.68
2018-05-31T22:39:12.479Z,20.66
2018-05-31T22:41:41.312Z,20.86
2018-05-31T22:44:10.148Z,20.71
2018-05-31T22:46:38.985Z,20.59
2018-05-31T22:49:07.838Z,20.59
2018-05-31T22:51:36.689Z,20.55
2018-05-31T22:54:05.541Z,20.46
2018-05-31T22:56:34.392Z,20.40
2018-05-31T22:59:03.256Z,20.35
2018-05-31T23:01:32.097Z,20.25
2018-05-31T23:04:00.967Z,20.17
2018-05-31T23:06:29.827Z,20.13
2018-05-31T23:08:58.657Z,20.03
2018-05-31T23:11:27.510Z,20.03
2018-05-31T23:13:56.344Z,19.98
2018-05-31T23:16:25.207Z,19.85
2018-05-31T23:18:54.084Z,19.82
2018-05-31T23:21:22.932Z,19.80
2018-05-31T23:23:51.786Z,20.16
2018-05-31T23:26:20.631Z,19.99
2018-05-31T23:28:49.441Z,19.96
2018-05-31T23:31:18.328Z,19.89
2018-05-31T23:33:47.213Z,19.83
2018-05-31T23:36:16.060Z,19.75
2018-05-31T23:38:44.912Z,20.10
2018-05-31T23:41:13.769Z,19.94
2018-05-31T23:43:42.646Z,19.90
2018-05-31T23:46:11.485Z,19.83
2018-05-31T23:48:40.351Z,19.78
2018-05-31T23:51:09.170Z,19.72
2018-05-31T23:53:38.031Z,19.61
2018-05-31T23:56:06.884Z,19.58
2018-05-31T23:58:35.744Z,19.58
